Time;durP1;ratioP1;P1;durP2;ratioP2;P2;SDS_P1;SDS_P2;PMS_P1;PMS_P2;Temp;Humidity;BMP_temperature;BMP_pressure;BME280_temperature;BME280_humidity;BME280_pressure;Samples;Min_cycle;Max_cycle;Signal;HPM_P1;HPM_P2
2021/12/12 00:01:52;;;;;;;89.35;41.00;;;3.90;99.90;;;;;;5029069;28;20402;-38
2021/12/12 00:04:31;;;;;;;94.40;41.13;;;4.00;99.90;;;;;;5014353;28;20049;-39
2021/12/12 00:06:58;;;;;;;89.82;38.95;;;4.00;99.90;;;;;;5032487;28;20057;-39
2021/12/12 00:09:27;;;;;;;88.82;40.08;;;4.00;99.90;;;;;;5029678;28;20077;-39
2021/12/12 00:11:54;;;;;;;76.35;39.38;;;4.00;99.90;;;;;;5022445;28;20053;-38
2021/12/12 00:14:24;;;;;;;82.90;40.15;;;4.00;99.90;;;;;;4999673;28;20092;-38
2021/12/12 00:16:51;;;;;;;90.93;40.58;;;4.00;99.90;;;;;;5017917;28;20501;-38
2021/12/12 00:19:20;;;;;;;83.70;38.83;;;4.00;99.90;;;;;;5014845;28;20524;-38
2021/12/12 00:21:48;;;;;;;96.43;41.30;;;4.00;99.90;;;;;;5015078;28;20049;-39
2021/12/12 00:24:15;;;;;;;86.47;38.13;;;4.10;99.90;;;;;;5017592;28;20133;-39
2021/12/12 00:26:42;;;;;;;93.05;40.60;;;4.00;99.90;;;;;;5008774;28;20064;-38
2021/12/12 00:29:10;;;;;;;86.68;40.63;;;4.10;99.90;;;;;;5027496;28;20375;-38
2021/12/12 00:31:37;;;;;;;86.65;38.15;;;4.00;99.90;;;;;;5016544;28;20160;-38
2021/12/12 00:34:04;;;;;;;83.05;38.25;;;4.00;99.90;;;;;;5000504;28;20054;-39
2021/12/12 00:36:34;;;;;;;78.82;36.92;;;4.10;99.90;;;;;;5017391;28;20072;-38
2021/12/12 00:39:03;;;;;;;89.88;39.72;;;4.10;99.90;;;;;;5016449;28;20084;-38
2021/12/12 00:41:32;;;;;;;94.40;41.17;;;4.10;99.90;;;;;;5034396;28;20073;-38
2021/12/12 00:43:59;;;;;;;107.60;41.03;;;4.10;99.90;;;;;;5018129;28;20053;-38
2021/12/12 00:46:27;;;;;;;86.63;38.55;;;4.10;99.90;;;;;;5035802;28;20056;-38
2021/12/12 00:48:54;;;;;;;85.10;39.30;;;4.10;99.90;;;;;;5018382;28;20055;-38
2021/12/12 00:51:29;;;;;;;85.70;38.95;;;4.10;99.90;;;;;;5035083;28;20046;-38
2021/12/12 00:53:57;;;;;;;85.63;36.85;;;4.10;99.90;;;;;;5035385;28;20123;-38
2021/12/12 00:56:24;;;;;;;91.50;38.15;;;4.10;99.90;;;;;;5035501;28;20052;-38
2021/12/12 00:58:51;;;;;;;81.93;38.67;;;4.10;99.90;;;;;;5018076;28;20052;-38
2021/12/12 01:01:20;;;;;;;89.90;38.15;;;4.10;99.90;;;;;;5034772;28;20081;-38
2021/12/12 01:03:52;;;;;;;85.03;38.67;;;4.10;99.90;;;;;;5027297;28;20552;-38
2021/12/12 01:06:19;;;;;;;77.18;37.40;;;4.10;99.90;;;;;;5031497;28;20476;-38
2021/12/12 01:08:47;;;;;;;87.05;38.53;;;4.10;99.90;;;;;;5011623;28;20603;-38
2021/12/12 01:11:18;;;;;;;84.10;39.47;;;4.10;99.90;;;;;;5034996;28;20049;-38
2021/12/12 01:13:45;;;;;;;80.95;36.90;;;4.10;99.90;;;;;;5035344;28;20432;-37
2021/12/12 01:16:15;;;;;;;86.82;36.42;;;4.20;99.90;;;;;;5035323;28;20085;-38
2021/12/12 01:18:44;;;;;;;87.15;37.67;;;4.20;99.90;;;;;;5034443;28;20139;-40
2021/12/12 01:21:14;;;;;;;93.63;37.03;;;4.20;99.90;;;;;;5034852;28;20132;-39
2021/12/12 01:23:43;;;;;;;69.38;34.53;;;4.20;99.90;;;;;;5033747;28;20148;-38
2021/12/12 01:26:10;;;;;;;82.68;36.47;;;4.20;99.90;;;;;;5015420;28;20088;-39
2021/12/12 01:28:43;;;;;;;81.32;35.88;;;4.20;99.90;;;;;;5021580;28;20436;-38
2021/12/12 01:31:13;;;;;;;75.70;35.22;;;4.20;99.90;;;;;;5017195;28;20061;-39
2021/12/12 01:33:41;;;;;;;78.45;36.13;;;4.20;99.90;;;;;;5015813;28;20053;-39
2021/12/12 01:36:12;;;;;;;82.28;36.20;;;4.20;99.90;;;;;;5034491;28;20133;-38
2021/12/12 01:38:54;;;;;;;79.07;36.90;;;4.30;99.90;;;;;;5016253;28;20077;-37
2021/12/12 01:41:24;;;;;;;82.03;36.40;;;4.20;99.90;;;;;;5005742;28;20054;-39
2021/12/12 01:43:52;;;;;;;95.43;37.83;;;4.30;99.90;;;;;;5023371;28;20049;-38
2021/12/12 01:46:21;;;;;;;78.10;35.45;;;4.30;99.90;;;;;;5034740;28;20053;-39
2021/12/12 01:48:51;;;;;;;76.60;35.65;;;4.30;99.90;;;;;;5031847;28;20081;-38
2021/12/12 01:51:18;;;;;;;85.68;35.40;;;4.30;99.90;;;;;;5029418;28;20046;-38
2021/12/12 01:53:47;;;;;;;79.78;34.25;;;4.30;99.90;;;;;;4999310;28;20569;-39
2021/12/12 01:56:18;;;;;;;76.70;33.33;;;4.30;99.90;;;;;;5034604;28;20128;-38
2021/12/12 01:58:46;;;;;;;80.53;34.35;;;4.30;99.90;;;;;;5032206;28;20459;-39
2021/12/12 02:01:16;;;;;;;87.22;33.67;;;4.30;99.90;;;;;;5034336;28;20089;-39
2021/12/12 02:03:46;;;;;;;80.22;33.35;;;4.40;99.90;;;;;;5034105;28;20095;-39
2021/12/12 02:06:14;;;;;;;82.85;34.10;;;4.40;99.90;;;;;;5017063;28;20049;-39
2021/12/12 02:08:41;;;;;;;81.00;34.45;;;4.40;99.90;;;;;;5032756;28;20137;-39
2021/12/12 02:11:10;;;;;;;83.18;33.60;;;4.40;99.90;;;;;;5010890;28;20045;-39
2021/12/12 02:13:38;;;;;;;80.95;33.00;;;4.40;99.90;;;;;;5032197;28;20050;-38
2021/12/12 02:16:06;;;;;;;69.80;28.52;;;4.40;99.90;;;;;;5033876;28;20049;-39
2021/12/12 02:18:37;;;;;;;71.97;31.88;;;4.40;99.90;;;;;;5014555;28;20133;-38
2021/12/12 02:21:10;;;;;;;68.25;30.33;;;4.50;99.90;;;;;;5030265;28;20398;-39
2021/12/12 02:23:53;;;;;;;69.90;30.42;;;4.50;99.90;;;;;;5014277;28;20061;-38
2021/12/12 02:37:15;;;;;;;54.40;27.20;;;4.60;99.90;;;;;;5002786;28;20054;-39
2021/12/12 02:39:43;;;;;;;56.75;26.38;;;4.60;99.90;;;;;;5011240;28;20042;-39
2021/12/12 02:42:12;;;;;;;58.05;26.17;;;4.60;99.90;;;;;;5021387;28;20050;-39
2021/12/12 02:44:40;;;;;;;58.47;26.80;;;4.60;99.90;;;;;;5016109;28;20084;-40
2021/12/12 02:47:12;;;;;;;62.30;26.58;;;4.60;99.90;;;;;;5033512;28;20053;-38
2021/12/12 02:49:52;;;;;;;67.80;27.05;;;4.60;99.90;;;;;;5007120;28;20053;-40
2021/12/12 02:52:22;;;;;;;65.85;26.00;;;4.60;99.90;;;;;;5013863;28;20132;-39
2021/12/12 02:54:50;;;;;;;64.00;25.13;;;4.60;99.90;;;;;;5013925;28;20093;-40
2021/12/12 02:57:17;;;;;;;57.92;26.42;;;4.60;99.90;;;;;;5013539;28;20060;-38
2021/12/12 02:59:48;;;;;;;51.30;23.02;;;4.60;99.90;;;;;;5023331;28;20471;-39
2021/12/12 03:02:20;;;;;;;59.55;25.35;;;4.70;99.90;;;;;;5015302;28;20497;-39
2021/12/12 03:04:47;;;;;;;66.15;25.65;;;4.70;99.90;;;;;;5015751;28;20103;-39
2021/12/12 03:07:14;;;;;;;56.63;24.88;;;4.60;99.90;;;;;;5013599;28;20544;-38
2021/12/12 03:09:43;;;;;;;58.22;23.50;;;4.70;99.90;;;;;;5005846;28;20046;-39
2021/12/12 03:12:13;;;;;;;60.72;24.83;;;4.70;99.90;;;;;;5013462;28;20053;-39
2021/12/12 03:14:40;;;;;;;49.42;21.48;;;4.70;99.90;;;;;;5029175;28;20060;-38
2021/12/12 03:17:10;;;;;;;53.15;24.95;;;4.60;99.90;;;;;;5013753;28;20374;-38
2021/12/12 03:19:37;;;;;;;54.10;23.60;;;4.70;99.90;;;;;;5013656;28;20379;-39
2021/12/12 03:22:05;;;;;;;55.90;23.15;;;4.70;99.90;;;;;;5021394;28;20064;-39
2021/12/12 03:24:32;;;;;;;60.03;24.02;;;4.60;99.90;;;;;;5015646;28;20049;-39
2021/12/12 03:27:00;;;;;;;46.38;20.70;;;4.70;99.90;;;;;;5032637;28;20064;-38
2021/12/12 03:29:29;;;;;;;48.83;23.73;;;4.70;99.90;;;;;;5014464;28;20465;-39
2021/12/12 03:31:57;;;;;;;50.15;21.67;;;4.70;99.90;;;;;;5013226;28;20089;-39
2021/12/12 03:34:26;;;;;;;43.15;21.77;;;4.70;99.90;;;;;;4995893;28;20498;-39
2021/12/12 03:36:58;;;;;;;47.17;23.05;;;4.70;99.90;;;;;;5028708;28;20088;-39
2021/12/12 03:39:27;;;;;;;49.83;22.80;;;4.70;99.90;;;;;;5011116;28;20099;-39
2021/12/12 03:41:55;;;;;;;50.75;21.80;;;4.70;99.90;;;;;;5024793;28;20049;-41
2021/12/12 03:44:23;;;;;;;47.30;21.45;;;4.70;99.90;;;;;;5014362;28;20132;-38
2021/12/12 03:46:54;;;;;;;56.63;22.60;;;4.70;99.90;;;;;;5031916;28;20100;-39
2021/12/12 03:49:21;;;;;;;47.72;20.77;;;4.70;99.90;;;;;;5027834;28;20081;-39
2021/12/12 03:51:48;;;;;;;51.13;21.30;;;4.70;99.90;;;;;;5006692;28;20068;-39
2021/12/12 03:54:16;;;;;;;49.55;22.05;;;4.70;99.90;;;;;;5023404;28;20107;-39
2021/12/12 03:56:43;;;;;;;45.05;20.85;;;4.70;99.90;;;;;;5031638;28;20080;-40
2021/12/12 03:59:10;;;;;;;52.42;20.77;;;4.80;99.90;;;;;;5031803;28;20464;-38
2021/12/12 04:01:38;;;;;;;52.17;21.65;;;4.80;99.90;;;;;;5014504;28;20128;-39
2021/12/12 04:04:09;;;;;;;44.95;19.73;;;4.80;99.90;;;;;;5035401;28;20494;-40
2021/12/12 04:06:36;;;;;;;53.85;20.30;;;4.80;99.90;;;;;;5035809;28;20053;-39
2021/12/12 04:09:04;;;;;;;40.42;19.60;;;4.80;99.90;;;;;;5018043;28;20141;-39
2021/12/12 04:11:32;;;;;;;46.38;19.92;;;4.80;99.90;;;;;;5018212;28;20099;-39
2021/12/12 04:13:59;;;;;;;43.08;17.95;;;4.80;99.90;;;;;;5018010;28;20057;-39
2021/12/12 04:16:27;;;;;;;41.42;19.27;;;4.80;99.90;;;;;;5017945;28;20137;-39
2021/12/12 04:18:54;;;;;;;34.97;16.48;;;4.80;99.90;;;;;;5036204;28;20100;-38
2021/12/12 04:21:23;;;;;;;34.63;17.40;;;4.80;99.90;;;;;;5034519;28;20095;-38
2021/12/12 04:23:50;;;;;;;44.72;19.33;;;4.80;99.90;;;;;;5035837;28;20045;-39
2021/12/12 04:26:19;;;;;;;33.15;17.23;;;4.90;99.90;;;;;;5017575;28;20056;-40
2021/12/12 04:28:54;;;;;;;45.15;17.27;;;4.90;99.90;;;;;;5010276;28;20088;-39
2021/12/12 04:31:21;;;;;;;40.72;18.23;;;4.90;99.90;;;;;;5035479;28;20045;-40
2021/12/12 04:33:48;;;;;;;33.10;14.98;;;4.90;99.90;;;;;;5028481;28;20073;-39
2021/12/12 04:36:15;;;;;;;42.03;18.58;;;4.90;99.90;;;;;;5032871;28;20049;-40
2021/12/12 04:38:43;;;;;;;33.50;16.15;;;4.90;99.90;;;;;;5035015;28;20453;-39
2021/12/12 04:41:10;;;;;;;32.28;16.40;;;4.90;99.90;;;;;;5030364;28;20056;-39
2021/12/12 04:43:40;;;;;;;31.75;17.52;;;4.90;99.90;;;;;;5018024;28;20557;-39
2021/12/12 04:46:11;;;;;;;34.63;16.55;;;5.00;99.90;;;;;;5035262;28;20049;-39
2021/12/12 04:51:31;;;;;;;27.50;15.90;;;5.00;99.90;;;;;;5002755;28;20401;-39
2021/12/12 04:54:01;;;;;;;35.75;17.00;;;5.00;99.90;;;;;;5015768;28;20045;-39
2021/12/12 04:56:29;;;;;;;28.45;15.77;;;5.00;99.90;;;;;;5035417;28;20049;-39
2021/12/12 04:59:05;;;;;;;25.48;14.10;;;5.00;99.90;;;;;;5027243;28;20049;-38
2021/12/12 05:01:36;;;;;;;33.40;15.70;;;5.00;99.90;;;;;;5034253;28;20101;-39
2021/12/12 05:04:08;;;;;;;32.13;16.92;;;5.00;99.90;;;;;;5027792;28;20053;-39
2021/12/12 05:06:36;;;;;;;;;;;5.10;99.90;;;;;;5035724;28;20401;-38
2021/12/12 05:09:08;;;;;;;27.83;15.32;;;5.10;99.90;;;;;;5027249;28;19976;-39
2021/12/12 05:11:40;;;;;;;21.30;12.55;;;5.10;99.90;;;;;;5026460;28;20401;-39
2021/12/12 05:14:10;;;;;;;22.90;10.60;;;5.10;99.90;;;;;;5033992;28;20088;-38
2021/12/12 05:16:38;;;;;;;23.77;13.52;;;5.10;99.90;;;;;;5034776;28;20068;-38
2021/12/12 05:19:09;;;;;;;22.92;13.23;;;5.10;99.90;;;;;;5034750;28;20088;-39
2021/12/12 05:21:39;;;;;;;25.27;14.35;;;5.10;99.90;;;;;;5034926;28;20103;-38
2021/12/12 05:24:10;;;;;;;18.52;12.40;;;5.10;99.90;;;;;;5034300;28;20485;-39
2021/12/12 05:26:39;;;;;;;23.00;13.23;;;5.20;99.90;;;;;;5016495;28;20485;-39
2021/12/12 05:29:08;;;;;;;22.33;13.13;;;5.20;99.90;;;;;;5031986;28;20132;-39
2021/12/12 05:31:37;;;;;;;17.55;12.40;;;5.20;99.90;;;;;;5012049;28;20795;-40
2021/12/12 05:34:04;;;;;;;21.60;12.10;;;5.20;99.90;;;;;;5034456;28;20457;-39
2021/12/12 05:36:31;;;;;;;17.48;11.60;;;5.20;99.90;;;;;;5016389;28;20085;-39
2021/12/12 05:38:58;;;;;;;19.10;12.15;;;5.20;99.90;;;;;;5016843;28;20092;-42
2021/12/12 05:41:26;;;;;;;16.23;11.02;;;5.30;99.90;;;;;;5015834;28;20057;-40
2021/12/12 05:43:55;;;;;;;17.92;11.68;;;5.30;99.90;;;;;;5034406;28;20048;-39
2021/12/12 05:46:23;;;;;;;18.60;11.32;;;5.30;99.90;;;;;;5008371;28;20055;-40
2021/12/12 05:48:50;;;;;;;18.08;12.00;;;5.30;99.90;;;;;;5032191;28;20171;-40
2021/12/12 05:51:17;;;;;;;19.73;11.18;;;5.40;99.90;;;;;;5011378;28;20548;-39
2021/12/12 05:53:44;;;;;;;19.08;12.38;;;5.30;99.90;;;;;;5016345;28;20088;-39
2021/12/12 05:56:11;;;;;;;17.08;12.38;;;5.40;99.90;;;;;;5033969;28;20397;-39
2021/12/12 05:58:40;;;;;;;22.52;11.75;;;5.30;99.90;;;;;;5012399;28;20076;-40
2021/12/12 06:01:08;;;;;;;19.13;12.27;;;5.40;99.90;;;;;;5012286;28;20099;-39
2021/12/12 06:03:40;;;;;;;20.67;12.55;;;5.40;99.90;;;;;;5034440;28;20084;-39
2021/12/12 06:06:09;;;;;;;21.05;13.10;;;5.40;99.90;;;;;;5034719;28;20140;-40
2021/12/12 06:08:36;;;;;;;21.58;12.68;;;5.40;99.90;;;;;;5034702;28;20132;-43
2021/12/12 06:11:04;;;;;;;21.50;13.82;;;5.40;99.90;;;;;;5011840;28;20559;-39
2021/12/12 06:13:31;;;;;;;20.42;13.25;;;5.50;99.90;;;;;;5033559;28;20045;-40
2021/12/12 06:16:00;;;;;;;22.50;13.85;;;5.50;99.90;;;;;;5033740;28;20073;-40
2021/12/12 06:18:28;;;;;;;20.95;13.60;;;5.40;99.90;;;;;;5033364;28;20111;-40
2021/12/12 06:20:55;;;;;;;20.95;13.23;;;5.50;99.90;;;;;;5032523;28;20401;-39
2021/12/12 06:23:22;;;;;;;25.20;14.52;;;5.50;99.90;;;;;;5014090;28;20085;-40
2021/12/12 06:25:50;;;;;;;19.98;13.95;;;5.60;99.90;;;;;;5015792;28;20045;-41
2021/12/12 06:28:20;;;;;;;23.75;14.10;;;5.50;99.90;;;;;;5033413;28;20082;-40
2021/12/12 06:30:47;;;;;;;21.95;14.32;;;5.50;99.90;;;;;;5022579;28;20128;-40
2021/12/12 06:33:15;;;;;;;19.88;12.95;;;5.60;99.90;;;;;;5030943;28;20057;-39
2021/12/12 06:35:42;;;;;;;20.58;13.38;;;5.60;99.90;;;;;;5015124;28;20391;-40
2021/12/12 06:38:10;;;;;;;18.52;12.65;;;5.60;99.90;;;;;;5032102;28;20056;-39
2021/12/12 06:40:38;;;;;;;24.85;14.63;;;5.60;99.90;;;;;;5011936;28;20509;-40
2021/12/12 06:43:06;;;;;;;18.88;12.18;;;5.60;99.90;;;;;;5032379;28;20076;-40
2021/12/12 06:45:34;;;;;;;22.58;13.85;;;5.60;99.90;;;;;;5015621;28;20375;-40
2021/12/12 06:48:02;;;;;;;20.45;13.43;;;5.60;99.90;;;;;;5032117;28;20451;-40
2021/12/12 06:50:31;;;;;;;22.05;14.38;;;5.60;99.90;;;;;;5031846;28;20559;-40
2021/12/12 06:53:00;;;;;;;24.58;13.48;;;5.70;99.90;;;;;;5017289;28;20124;-39
2021/12/12 06:55:27;;;;;;;24.95;13.70;;;5.70;99.90;;;;;;5032778;28;20053;-41
2021/12/12 06:57:54;;;;;;;23.10;13.35;;;5.70;99.90;;;;;;5015043;28;20104;-39
2021/12/12 07:00:22;;;;;;;17.25;11.52;;;5.70;99.90;;;;;;5007914;28;20081;-40
2021/12/12 07:02:49;;;;;;;25.45;13.50;;;5.70;99.90;;;;;;5014581;28;20057;-40
2021/12/12 07:05:18;;;;;;;19.60;12.75;;;5.70;99.90;;;;;;5014550;28;20497;-41
2021/12/12 07:07:47;;;;;;;23.52;13.32;;;5.70;99.90;;;;;;5014417;28;20107;-40
2021/12/12 07:10:15;;;;;;;17.80;10.07;;;5.70;99.90;;;;;;5027243;28;20046;-41
2021/12/12 07:12:42;;;;;;;18.20;11.70;;;5.80;99.90;;;;;;5029523;28;20433;-41
2021/12/12 07:15:10;;;;;;;16.92;11.55;;;5.80;99.90;;;;;;5014051;28;20045;-40
2021/12/12 07:17:37;;;;;;;20.65;12.35;;;5.80;99.90;;;;;;5032215;28;20052;-42
2021/12/12 07:20:05;;;;;;;16.92;11.85;;;5.90;99.90;;;;;;5010570;28;20454;-40
2021/12/12 07:22:32;;;;;;;20.40;12.13;;;5.90;99.90;;;;;;5024024;28;20056;-41
2021/12/12 07:25:02;;;;;;;19.80;12.32;;;5.90;99.90;;;;;;5014349;28;20056;-40
2021/12/12 07:27:29;;;;;;;18.92;13.00;;;5.90;99.90;;;;;;5032294;28;20042;-41
2021/12/12 07:29:56;;;;;;;19.75;12.20;;;5.90;99.90;;;;;;5007074;28;20041;-41
2021/12/12 07:32:23;;;;;;;17.75;12.02;;;5.90;99.90;;;;;;5013779;28;20061;-40
2021/12/12 07:34:50;;;;;;;18.10;11.60;;;6.00;99.90;;;;;;5013569;28;20077;-40
2021/12/12 07:37:17;;;;;;;17.88;12.38;;;6.00;99.90;;;;;;5009861;28;20194;-41
2021/12/12 07:39:44;;;;;;;23.15;13.27;;;6.00;99.90;;;;;;5015255;28;20088;-40
2021/12/12 07:42:13;;;;;;;20.58;12.43;;;6.10;99.90;;;;;;5011501;28;20086;-40
2021/12/12 07:44:40;;;;;;;20.10;12.30;;;6.10;99.90;;;;;;5009971;28;20436;-40
2021/12/12 07:47:09;;;;;;;23.48;13.18;;;6.10;99.90;;;;;;5030344;28;20049;-41
2021/12/12 07:49:38;;;;;;;18.83;11.60;;;6.10;99.90;;;;;;5020886;28;20052;-41
2021/12/12 07:52:05;;;;;;;19.40;12.05;;;6.10;99.90;;;;;;5022422;28;20045;-41
2021/12/12 07:54:33;;;;;;;19.10;11.43;;;6.10;99.90;;;;;;5025342;28;20156;-40
2021/12/12 07:57:00;;;;;;;19.48;12.05;;;6.20;99.90;;;;;;5028404;28;20085;-41
2021/12/12 07:59:28;;;;;;;15.25;10.82;;;6.20;99.90;;;;;;5028152;28;20119;-42
2021/12/12 08:01:55;;;;;;;16.77;11.45;;;6.20;99.90;;;;;;5002632;28;20045;-42
2021/12/12 08:04:23;;;;;;;16.83;11.05;;;6.20;99.90;;;;;;5019098;28;20057;-41
2021/12/12 08:06:51;;;;;;;18.38;11.93;;;6.20;99.90;;;;;;5030156;28;20057;-41
2021/12/12 08:09:18;;;;;;;21.33;12.13;;;6.20;99.90;;;;;;5013147;28;20128;-40
2021/12/12 08:11:47;;;;;;;24.80;13.07;;;6.30;99.90;;;;;;5008527;28;20137;-40
2021/12/12 08:14:17;;;;;;;21.50;11.85;;;6.30;99.90;;;;;;5030773;28;20053;-41
2021/12/12 08:16:45;;;;;;;23.95;14.02;;;6.30;99.90;;;;;;5006802;28;20127;-41
2021/12/12 08:19:12;;;;;;;29.38;14.88;;;6.30;99.90;;;;;;5009913;28;20532;-41
2021/12/12 08:21:39;;;;;;;25.75;15.15;;;6.30;99.90;;;;;;5009344;28;20136;-40
2021/12/12 08:24:09;;;;;;;24.92;14.13;;;6.40;99.90;;;;;;5005418;28;20109;-41
2021/12/12 08:26:36;;;;;;;25.95;14.70;;;6.40;99.90;;;;;;5029228;28;20080;-41
2021/12/12 08:29:05;;;;;;;26.75;15.05;;;6.40;99.90;;;;;;5029693;28;20077;-41
2021/12/12 08:31:32;;;;;;;27.83;16.42;;;6.40;99.90;;;;;;5030652;28;20081;-42
2021/12/12 08:34:01;;;;;;;28.45;16.20;;;6.50;99.90;;;;;;5022998;28;20461;-41
2021/12/12 08:36:28;;;;;;;24.77;15.00;;;6.50;99.90;;;;;;5030779;28;20053;-42
2021/12/12 08:38:55;;;;;;;25.77;15.55;;;6.60;99.90;;;;;;5030461;28;20045;-41
2021/12/12 08:41:22;;;;;;;30.58;15.23;;;6.60;99.90;;;;;;5010465;28;20473;-41
2021/12/12 08:43:49;;;;;;;25.77;16.38;;;6.60;99.90;;;;;;5000762;28;20052;-41
2021/12/12 08:46:16;;;;;;;25.50;15.85;;;6.70;99.90;;;;;;5001651;28;20124;-43
2021/12/12 08:48:45;;;;;;;26.67;14.30;;;6.70;99.90;;;;;;5012413;28;20057;-42
2021/12/12 08:51:14;;;;;;;28.98;14.90;;;6.70;99.90;;;;;;5031349;28;20080;-41
2021/12/12 08:53:44;;;;;;;33.25;16.50;;;6.70;99.90;;;;;;5033007;28;20088;-41
2021/12/12 08:56:18;;;;;;;29.65;16.70;;;6.80;99.90;;;;;;5034284;28;20050;-41
2021/12/12 08:58:45;;;;;;;32.72;16.60;;;6.80;99.90;;;;;;5029422;28;20056;-42
2021/12/12 09:01:14;;;;;;;34.88;17.25;;;6.80;99.90;;;;;;5016008;28;20084;-42
2021/12/12 09:03:43;;;;;;;32.20;17.15;;;6.90;99.90;;;;;;5023960;28;20099;-41
2021/12/12 09:06:13;;;;;;;34.17;17.13;;;6.90;99.90;;;;;;5015354;28;20049;-42
2021/12/12 09:08:41;;;;;;;39.60;18.73;;;6.90;99.90;;;;;;5032205;28;20128;-42
2021/12/12 09:11:10;;;;;;;35.03;18.05;;;7.00;99.90;;;;;;5030981;28;20049;-41
2021/12/12 09:13:41;;;;;;;40.55;18.67;;;7.00;99.90;;;;;;5031384;28;20053;-41
2021/12/12 09:16:11;;;;;;;44.90;19.45;;;7.10;99.90;;;;;;5027043;28;20060;-41
2021/12/12 09:18:41;;;;;;;43.78;19.67;;;7.00;99.90;;;;;;5034548;28;20053;-44
2021/12/12 09:21:11;;;;;;;48.97;21.95;;;7.10;99.90;;;;;;5030309;28;20073;-41
2021/12/12 09:23:42;;;;;;;47.72;22.10;;;7.10;99.90;;;;;;5012475;28;20089;-42
2021/12/12 09:26:12;;;;;;;49.95;21.17;;;7.10;99.90;;;;;;5030663;28;20456;-42
2021/12/12 09:28:40;;;;;;;49.10;22.88;;;7.10;99.90;;;;;;5032861;28;20448;-42
2021/12/12 09:31:08;;;;;;;41.63;20.13;;;7.20;99.90;;;;;;5027322;28;20057;-41
2021/12/12 09:33:39;;;;;;;40.45;18.85;;;7.20;99.90;;;;;;5030389;28;20084;-41
2021/12/12 09:36:08;;;;;;;53.70;23.40;;;7.20;99.90;;;;;;5032941;28;20134;-43
2021/12/12 09:38:41;;;;;;;61.20;24.95;;;7.20;99.90;;;;;;5028922;28;20088;-41
2021/12/12 09:41:23;;;;;;;55.17;24.08;;;7.20;99.90;;;;;;5033916;28;20045;-42
2021/12/12 09:44:07;;;;;;;59.00;24.63;;;7.30;99.90;;;;;;5014368;28;20080;-41
2021/12/12 09:46:59;;;;;;;53.72;24.08;;;7.30;99.90;;;;;;5013957;28;20069;-42
2021/12/12 09:52:39;;;;;;;50.65;22.42;;;7.30;99.90;;;;;;5027642;28;19921;-42
2021/12/12 09:55:10;;;;;;;59.00;24.45;;;7.30;99.90;;;;;;5007983;28;20383;-41
2021/12/12 09:57:39;;;;;;;52.88;23.83;;;7.40;99.90;;;;;;5032671;28;20053;-42
2021/12/12 10:00:11;;;;;;;56.72;24.48;;;7.40;99.90;;;;;;5026616;28;20046;-42
2021/12/12 10:02:54;;;;;;;48.78;22.77;;;7.40;99.90;;;;;;5033084;28;20041;-42
2021/12/12 10:05:27;;;;;;;57.53;24.00;;;7.50;99.90;;;;;;5030513;28;20053;-41
2021/12/12 10:07:59;;;;;;;49.60;23.52;;;7.50;99.90;;;;;;5014575;28;20132;-42
2021/12/12 10:10:29;;;;;;;;;;;7.60;99.90;;;;;;5012372;28;20065;-42
2021/12/12 10:13:01;;;;;;;56.47;23.20;;;7.60;99.90;;;;;;5028035;28;19980;-41
2021/12/12 10:15:30;;;;;;;48.25;22.00;;;7.60;99.90;;;;;;5005947;28;20285;-44
2021/12/12 10:17:59;;;;;;;51.78;22.23;;;7.60;99.90;;;;;;5000934;28;20137;-43
2021/12/12 10:20:30;;;;;;;46.42;21.98;;;7.70;99.90;;;;;;5012018;28;20552;-42
2021/12/12 10:23:02;;;;;;;44.63;21.25;;;7.70;99.90;;;;;;5032926;28;20049;-43
2021/12/12 10:25:33;;;;;;;51.83;21.75;;;7.70;99.90;;;;;;5014873;28;20099;-42
2021/12/12 10:28:02;;;;;;;54.80;23.60;;;7.80;99.90;;;;;;5006136;28;20054;-43
2021/12/12 10:30:30;;;;;;;52.13;23.17;;;7.80;99.90;;;;;;5030154;28;20049;-43
2021/12/12 10:33:03;;;;;;;42.33;21.20;;;7.80;99.90;;;;;;5026760;28;20134;-42
2021/12/12 10:35:34;;;;;;;44.30;20.63;;;7.90;99.90;;;;;;5028204;28;20077;-43
2021/12/12 10:38:04;;;;;;;42.15;20.35;;;7.90;99.90;;;;;;5027242;28;20556;-42
2021/12/12 10:40:36;;;;;;;42.60;20.17;;;8.00;99.90;;;;;;5027260;28;20088;-43
2021/12/12 10:43:05;;;;;;;39.72;20.67;;;8.00;99.90;;;;;;5022483;28;20059;-42
2021/12/12 10:45:34;;;;;;;49.20;20.92;;;8.00;99.90;;;;;;5014713;28;20084;-43
2021/12/12 10:48:03;;;;;;;43.25;19.70;;;8.00;99.90;;;;;;5027473;28;20084;-43
2021/12/12 10:50:41;;;;;;;47.28;20.63;;;8.10;99.90;;;;;;5024443;28;20103;-43
2021/12/12 10:53:09;;;;;;;36.67;18.23;;;8.10;99.90;;;;;;5014840;28;20049;-43
2021/12/12 10:55:42;;;;;;;33.75;17.48;;;8.10;99.90;;;;;;5030114;28;20417;-42
2021/12/12 10:58:12;;;;;;;39.70;19.52;;;8.20;99.90;;;;;;5026635;28;20053;-44
2021/12/12 11:00:42;;;;;;;37.40;19.08;;;8.20;99.90;;;;;;5025689;28;20049;-44
2021/12/12 11:03:11;;;;;;;42.85;18.85;;;8.30;99.90;;;;;;5025087;28;20038;-44
2021/12/12 11:05:39;;;;;;;33.58;16.80;;;8.30;99.90;;;;;;5025079;28;20057;-45
2021/12/12 11:08:10;;;;;;;41.03;18.60;;;8.30;99.90;;;;;;5006270;28;20057;-42
2021/12/12 11:10:40;;;;;;;38.78;18.38;;;8.30;99.90;;;;;;5023735;28;20107;-44
2021/12/12 11:13:10;;;;;;;38.60;18.05;;;8.30;99.90;;;;;;5016147;28;20083;-43
2021/12/12 11:15:39;;;;;;;34.72;16.42;;;8.40;99.90;;;;;;5024310;28;20138;-45
2021/12/12 11:18:07;;;;;;;37.90;17.00;;;8.40;99.90;;;;;;5024916;28;20111;-43
2021/12/12 11:20:35;;;;;;;37.22;17.38;;;8.40;99.90;;;;;;5028278;28;20089;-44
2021/12/12 11:23:05;;;;;;;36.00;18.30;;;8.40;99.90;;;;;;5019255;28;20065;-43
2021/12/12 11:25:36;;;;;;;29.30;16.27;;;8.50;99.90;;;;;;5013686;28;20115;-44
2021/12/12 11:28:06;;;;;;;35.20;17.08;;;8.50;99.90;;;;;;5029936;28;20045;-42
2021/12/12 11:30:35;;;;;;;38.60;18.35;;;8.50;99.90;;;;;;5029564;28;20046;-44
2021/12/12 11:33:03;;;;;;;39.40;18.67;;;8.50;99.90;;;;;;5026347;28;20124;-43
2021/12/12 11:35:32;;;;;;;36.95;16.90;;;8.60;99.90;;;;;;5028441;28;20453;-43
2021/12/12 11:38:03;;;;;;;32.20;17.48;;;8.60;99.90;;;;;;5009931;28;20087;-43
2021/12/12 11:40:37;;;;;;;34.13;17.63;;;8.60;99.90;;;;;;5029644;28;20063;-42
2021/12/12 11:43:11;;;;;;;31.17;17.48;;;8.60;99.90;;;;;;5003547;28;20556;-43
2021/12/12 11:45:41;;;;;;;37.13;17.42;;;8.60;99.90;;;;;;5029955;28;20797;-44
2021/12/12 11:48:18;;;;;;;37.33;18.25;;;8.60;99.90;;;;;;5028234;28;20100;-46
2021/12/12 11:50:50;;;;;;;35.47;17.08;;;8.70;99.90;;;;;;5029360;28;20131;-43
2021/12/12 11:53:25;;;;;;;35.53;17.55;;;8.70;99.90;;;;;;5029513;28;20092;-44
2021/12/12 11:55:53;;;;;;;39.35;18.75;;;8.70;99.90;;;;;;5025684;28;20432;-46
2021/12/12 11:58:27;;;;;;;40.80;18.02;;;8.70;99.90;;;;;;5025268;28;20056;-43
2021/12/12 12:00:58;;;;;;;37.40;18.83;;;8.70;99.90;;;;;;5026480;28;20085;-42
2021/12/12 12:03:27;;;;;;;;;;;8.70;99.90;;;;;;5028185;28;20482;-44
2021/12/12 12:05:58;;;;;;;;;;;8.70;99.90;;;;;;5020944;28;20397;-44
2021/12/12 12:08:27;;;;;;;;;;;8.70;99.90;;;;;;5019149;28;19957;-42
2021/12/12 12:11:01;;;;;;;;;;;8.70;99.90;;;;;;5009373;28;20366;-44
2021/12/12 12:13:39;;;;;;;;;;;8.70;99.90;;;;;;5001646;28;20015;-44
2021/12/12 12:16:09;;;;;;;;;;;8.70;99.90;;;;;;5004029;28;19929;-43
2021/12/12 12:18:41;;;;;;;;;;;8.70;99.90;;;;;;5004273;28;19968;-43
2021/12/12 12:21:13;;;;;;;;;;;8.80;99.90;;;;;;5023280;28;19929;-44
2021/12/12 12:23:59;;;;;;;;;;;8.80;99.90;;;;;;5012495;28;20337;-43
2021/12/12 12:29:36;;;;;;;;;;;8.90;99.90;;;;;;5034220;28;19936;-43
2021/12/12 12:32:44;;;;;;;;;;;8.90;99.90;;;;;;5014640;28;19929;-45
2021/12/12 12:35:37;;;;;;;;;;;8.90;99.90;;;;;;5034261;28;19933;-43
2021/12/12 12:38:25;;;;;;;;;;;9.00;99.90;;;;;;5018162;28;19921;-45
2021/12/12 12:41:10;;;;;;;;;;;9.00;99.90;;;;;;5020906;28;19921;-45
2021/12/12 12:43:56;;;;;;;;;;;9.00;99.90;;;;;;5028703;28;19924;-42
2021/12/12 12:46:56;;;;;;;;;;;9.00;99.90;;;;;;5028979;28;19928;-43
2021/12/12 12:49:42;;;;;;;;;;;9.00;99.90;;;;;;5017714;28;19920;-44
2021/12/12 12:52:30;;;;;;;;;;;9.10;99.90;;;;;;5017371;28;19928;-44
2021/12/12 12:55:12;;;;;;;;;;;9.10;99.90;;;;;;5033315;28;20039;-42
2021/12/12 12:57:41;;;;;;;;;;;9.10;99.90;;;;;;5010893;28;19975;-44
2021/12/12 13:00:09;;;;;;;;;;;9.10;99.90;;;;;;5029143;28;19925;-42
2021/12/12 13:02:54;;;;;;;;;;;9.20;99.90;;;;;;5012763;28;20003;-44
2021/12/12 13:05:48;;;;;;;;;;;9.20;99.90;;;;;;5015823;28;20541;-43
2021/12/12 13:08:35;;;;;;;;;;;9.20;99.90;;;;;;5012339;28;19921;-43
2021/12/12 13:11:02;;;;;;;;;;;9.20;99.90;;;;;;5032962;28;20288;-45
2021/12/12 13:13:31;;;;;;;;;;;9.20;99.90;;;;;;5026806;28;19976;-44
2021/12/12 13:16:00;;;;;;;;;;;9.30;99.90;;;;;;5031038;28;19925;-45
2021/12/12 13:18:33;;;;;;;;;;;9.20;99.90;;;;;;5033895;28;19961;-41
2021/12/12 13:21:03;;;;;;;;;;;9.30;99.90;;;;;;5013883;28;19974;-42
2021/12/12 13:23:35;;;;;;;;;;;9.30;99.90;;;;;;5017024;28;19921;-44